Flight Track Log - Related Links

Times and Time Zones

All times are in EST time to prevent confusion due to time zone crossing. See the AAY860 flight status page for this flight to view local times or setup timezone preferences in your user account.

Time Position Orientation Groundspeed Altitude Reporting Facility
EST Latitude Longitude Course Direction KTS MPH feet Rate Location/Type
Fri 07:22:31 AM 27.9333 -82.7000 30° Northeast 169 194 800  Level Tampa TRACON
Fri 07:23:49 AM 27.9833 -82.6667 30° Northeast 183 211 3,600 1,957 Climbing Tampa TRACON
Fri 07:24:49 AM 28.0500 -82.6500 12° North 263 303 5,300 2,300 Climbing Tampa TRACON
Fri 07:25:49 AM 28.1167 -82.6667 348° North 273 314 8,200 2,138 Climbing Tampa TRACON
Fri 07:27:57 AM 28.2917 -82.7394 340° North 304 350 12,000 1,979 Climbing Jacksonville Center
Fri 07:28:57 AM 28.3897 -82.7817 339° North 345 397 14,400 2,250 Climbing Jacksonville Center
Fri 07:29:57 AM 28.4983 -82.8169 344° North 378 435 16,500 2,000 Climbing Jacksonville Center
Fri 07:30:57 AM 28.6047 -82.8619 340° North 396 456 18,400 1,800 Climbing Jacksonville Center
Fri 07:31:57 AM 28.7156 -82.9044 341° North 410 472 20,100 1,700 Climbing Jacksonville Center
Fri 07:32:57 AM 28.8281 -82.9494 341° North 415 478 21,800 1,500 Climbing Jacksonville Center
Fri 07:33:57 AM 28.9472 -82.9922 343° North 428 493 23,100 1,450 Climbing Jacksonville Center
Fri 07:34:57 AM 29.0703 -83.0422 340° North 446 513 24,700 1,900 Climbing Jacksonville Center
Fri 07:35:57 AM 29.1911 -83.0828 344° North 451 519 26,900 1,750 Climbing Jacksonville Center
Fri 07:36:57 AM 29.3081 -83.1236 343° North 444 511 28,200 1,250 Climbing Jacksonville Center
Fri 07:37:57 AM 29.4269 -83.1717 341° North 439 505 29,400 850 Climbing Jacksonville Center
Fri 07:38:57 AM 29.5439 -83.2078 345° North 460 529 29,900 450 Climbing Jacksonville Center
Fri 07:39:57 AM 29.6625 -83.2631 338° Northwest 447 514 30,300 1,000 Climbing Jacksonville Center
Fri 07:40:57 AM 29.7836 -83.2994 345° North 441 507 31,900 850 Climbing Jacksonville Center
Fri 07:41:57 AM 29.8961 -83.3453 341° North 441 507 32,000 50 Climbing Jacksonville Center
Fri 07:42:57 AM 30.0150 -83.3892 342° North 441 507 32,000 -50 Level Jacksonville Center
Fri 07:43:57 AM 30.1275 -83.4306 342° North 441 507 31,900  Descending Jacksonville Center
Fri 07:44:57 AM 30.2444 -83.4744 342° North 441 507 32,000 50 Climbing Jacksonville Center
Fri 07:45:57 AM 30.3631 -83.5161 343° North 441 507 32,000  Level Jacksonville Center
Fri 07:46:57 AM 30.4778 -83.5628 341° North 441 507 32,000  Level Jacksonville Center
Fri 07:47:57 AM 30.5839 -83.5972 344° North 436 502 32,000  Level Jacksonville Center
Fri 07:48:57 AM 30.6986 -83.6464 340° North 436 502 32,000  Level Jacksonville Center
Fri 07:49:57 AM 30.8194 -83.6883 343° North 441 507 32,000  Level Jacksonville Center
Fri 07:50:57 AM 30.9361 -83.7356 341° North 446 513 32,000  Level Jacksonville Center
Fri 07:53:15 AM 31.2183 -83.8447 342° North 456 525 32,000  Level Atlanta Center
Fri 07:54:15 AM 31.3394 -83.8881 343° North 451 519 32,000  Level Atlanta Center
Fri 07:55:15 AM 31.4544 -83.9367 340° North 445 512 32,000  Level Atlanta Center
Fri 07:56:15 AM 31.5672 -83.9681 347° North 445 512 32,000  Level Atlanta Center
Fri 07:57:15 AM 31.6964 -83.9975 349° North 456 525 32,000  Level Atlanta Center
Fri 07:58:15 AM 31.8217 -84.0267 349° North 456 525 32,000  Level Atlanta Center
Fri 07:59:15 AM 31.9492 -84.0511 351° North 461 531 32,000  Level Atlanta Center
Fri 08:00:15 AM 32.0722 -84.0856 347° North 461 531 32,000  Level Atlanta Center
Fri 08:01:15 AM 32.2017 -84.1100 351° North 455 524 32,000  Level Atlanta Center
Fri 08:02:15 AM 32.3247 -84.1422 348° North 455 524 32,000  Level Atlanta Center
Fri 08:03:15 AM 32.4519 -84.1644 352° North 450 518 32,000  Level Atlanta Center
Fri 08:04:15 AM 32.5772 -84.1942 349° North 450 518 32,000  Level Atlanta Center
Fri 08:05:15 AM 32.7086 -84.2017 357° North 455 524 32,000  Level Atlanta Center
Fri 08:06:15 AM 32.8422 -84.2119 356° North 468 539 32,000  Level Atlanta Center
Fri 08:07:15 AM 32.9717 -84.2194 357° North 468 539 32,000  Level Atlanta Center
Fri 08:08:15 AM 33.1053 -84.2222 359° North 468 539 32,000  Level Atlanta Center
Fri 08:09:15 AM 33.2514 -84.2325 357° North 475 547 32,000  Level Atlanta Center
Fri 08:10:15 AM 33.3869 -84.2353 359° North 480 552 32,000  Level Atlanta Center
Fri 08:11:15 AM 33.5164 -84.2481 355° North 475 547 32,000  Level Atlanta Center
Fri 08:12:15 AM 33.6356 -84.2458 North 475 547 32,000  Level Atlanta Center
Fri 08:13:15 AM 33.7711 -84.2586 356° North 475 547 32,000  Level Atlanta Center
Fri 08:14:15 AM 33.9067 -84.2617 359° North 480 552 32,000  Level Atlanta Center
Fri 08:15:15 AM 34.0383 -84.2719 356° North 480 552 32,000  Level Atlanta Center
Fri 08:16:15 AM 34.1928 -84.2750 359° North 493 567 32,000  Level Atlanta Center
Fri 08:17:15 AM 34.3261 -84.2803 358° North 495 570 32,000  Level Atlanta Center
Fri 08:18:15 AM 34.4619 -84.2883 357° North 483 556 32,000  Level Atlanta Center
Fri 08:19:15 AM 34.5956 -84.2911 359° North 478 550 32,000  Level Atlanta Center
Fri 08:20:15 AM 34.7247 -84.3042 355° North 466 536 32,000  Level Atlanta Center
Fri 08:21:15 AM 34.8583 -84.3072 359° North 471 542 32,000  Level Atlanta Center
Fri 08:22:15 AM 34.9856 -84.3203 355° North 471 542 32,000  Level Atlanta Center
Fri 08:23:15 AM 35.1233 -84.3231 359° North 471 542 32,000  Level Atlanta Center
Fri 08:24:15 AM 35.2569 -84.3339 356° North 477 549 32,000  Level Atlanta Center
Fri 08:25:15 AM 35.3925 -84.3369 359° North 477 549 32,000  Level Atlanta Center
Fri 08:26:15 AM 35.5217 -84.3475 356° North 472 543 32,000  Level Atlanta Center
Fri 08:27:15 AM 35.6533 -84.3531 358° North 472 543 32,000 -590 Level Atlanta Center
Fri 08:29:08 AM 35.8800 -84.3667 357° North 464 534 30,300 -1,097 Descending Indianapolis Center
Fri 08:30:10 AM 36.0431 -84.3672 360° North 489 563 28,800 -1,268 Descending Indianapolis Center
Fri 08:31:11 AM 36.1736 -84.3817 355° North 476 548 27,700 -1,073 Descending Indianapolis Center
Fri 08:32:13 AM 36.3061 -84.3794 North 477 549 26,600 -1,122 Descending Indianapolis Center
Fri 08:33:14 AM 36.4386 -84.3936 355° North 480 552 25,400 -829 Descending Indianapolis Center
Fri 08:34:16 AM 36.5786 -84.3961 359° North 466 536 24,900 -683 Descending Indianapolis Center
Fri 08:35:17 AM 36.7031 -84.4075 356° North 450 518 24,000 -732 Descending Indianapolis Center
Fri 08:36:19 AM 36.8275 -84.4125 358° North 448 516 23,400 -1,171 Descending Indianapolis Center
Fri 08:37:20 AM 36.9447 -84.4272 354° North 427 491 21,600 -2,049 Descending Indianapolis Center
Fri 08:38:22 AM 37.0672 -84.4272 360° North 434 499 19,200 -2,390 Descending Indianapolis Center
Fri 08:39:23 AM 37.1847 -84.4353 357° North 422 486 16,700 -2,390 Descending Indianapolis Center
Fri 08:40:25 AM 37.2964 -84.4369 359° North 405 466 14,300 -2,341 Descending Indianapolis Center
Fri 08:41:26 AM 37.4064 -84.4400 359° North 396 456 11,900 -1,902 Descending Indianapolis Center
Fri 08:42:28 AM 37.5242 -84.4481 357° North 370 426 10,400 -1,355 Descending Indianapolis Center
Fri 08:43:30 AM 37.6089 -84.4533 357° North 320 368 9,100 -1,024 Descending Indianapolis Center
Fri 08:44:31 AM 37.6908 -84.4617 355° North 299 344 8,300 -829 Descending Indianapolis Center
Fri 08:45:33 AM 37.7744 -84.4653 358° North 298 343 7,400 -1,220 Descending Indianapolis Center
Fri 08:46:34 AM 37.8528 -84.4478 10° North 292 336 5,800 -1,171 Descending Indianapolis Center
Fri 08:47:36 AM 37.9250 -84.4153 20° North 284 327 5,000 -387 Descending Indianapolis Center
Fri 08:48:38 AM 37.9828 -84.3931 17° North 256 295 5,000 -390 Level Indianapolis Center
Fri 08:49:39 AM 38.0494 -84.3789 North 229 264 4,200 -829 Descending Indianapolis Center
Fri 08:50:41 AM 38.1078 -84.3731 North 219 252 3,300 -488 Descending Indianapolis Center
Fri 08:51:42 AM 38.1500 -84.4081 327° Northwest 190 219 3,200 -49 Descending Indianapolis Center
Fri 08:52:44 AM 38.1653 -84.4519 294° West 163 188 3,200  Level Indianapolis Center
Fri 08:53:46 AM 38.1375 -84.4933 230° Southwest 162 186 3,200 -195 Level Indianapolis Center
Fri 08:54:47 AM 38.1075 -84.5283 223° Southwest 154 177 2,800 -537 Descending Indianapolis Center
Fri 08:55:49 AM 38.0806 -84.5578 221° Southwest 144 166 2,100 -488 Descending Indianapolis Center
Fri 08:56:50 AM 38.0531 -84.5886 221° Southwest 139 160 1,800 -295 Descending Indianapolis Center

Login

Don't have an account? Register now (free) for customized features, flight alerts, and more!